Charter Quote
Worldwide +1-877-727-2538 Call
Select Language Lang
SAFETY RELIABILITY EXPERIENCE

Private Jet Charter Services - Jacarepagua (SBJR)

Paramount Business Jets offers private jet charter flights and luxury airliner charters to and from Jacarepagua.

AIRPORT INFORMATION
ICAOSBJR
LOCATIONRio De Janeiro, Brazil
FACILITY TYPEAIRPORT
Runway Length (ft) Width (ft) Surface Type Elevation (ft)
02/20 2956 42 CONC 10.00000

At Paramount Business Jets you can hire chartered private jets to and from Jacarepagua with as little as 4 hours of notice. All flights booked via Paramount Business Jets are operated by certified direct air carriers that meet and exceed the FAA part 135 and 121 protocol or a foreign equivalent safety authority. Furthermore, Paramount Business Jets subscribes to ARGUS for their third party safety checks of operators, aircraft, and crews prior each and every flight to and from Jacarepagua and worldwide.

  • Quote a trip using Jacarepagua or call us 24/7 - 365 days a year at +1-877-727-2538.
Questions? Call +1-877-727-2538

METAR Weather Data at Jacarepagua, SBJR

STATIONSBJR
OBSERVEDSun Aug 18, 00:00 UTC
NOWSun Aug 18, 03:16 UTC
AGE3:16 hr ago
WINDcalm
VISIBILITYgreater than 7 miles
CLOUDSclear skies
TEMP59°F (15°C)
DEWPT59°F (15°C)
HUMIDITY100%
BAROMETER1016 hPa (30 in Hg)
METARSBJR 180000Z 00000KT CAVOK 15/15 Q1016

Call us on +1-877-727-2538 (24 Hours) to Hire a Private Jet or Get a Quick Quote.

Find Airports Near any Location

Processing
...